sensor_id;sensor_type;location;lat;lon;timestamp;P1;durP1;ratioP1;P2;durP2;ratioP2
78887;SDS011;68276;49.326;8.690;2023-06-22T00:01:57;7.65;;;2.38;;
78887;SDS011;68276;49.326;8.690;2023-06-22T00:06:48;6.77;;;1.97;;
78887;SDS011;68276;49.326;8.690;2023-06-22T00:11:38;7.37;;;2.07;;
78887;SDS011;68276;49.326;8.690;2023-06-22T00:14:04;6.55;;;2.10;;
78887;SDS011;68276;49.326;8.690;2023-06-22T00:18:58;7.25;;;2.30;;
78887;SDS011;68276;49.326;8.690;2023-06-22T00:21:25;7.88;;;2.50;;
78887;SDS011;68276;49.326;8.690;2023-06-22T00:23:51;7.63;;;2.10;;
78887;SDS011;68276;49.326;8.690;2023-06-22T00:28:42;6.60;;;2.43;;
78887;SDS011;68276;49.326;8.690;2023-06-22T00:33:32;8.67;;;2.63;;
78887;SDS011;68276;49.326;8.690;2023-06-22T00:35:58;5.47;;;2.00;;
78887;SDS011;68276;49.326;8.690;2023-06-22T00:38:23;6.80;;;2.05;;
78887;SDS011;68276;49.326;8.690;2023-06-22T00:40:49;6.13;;;2.00;;
78887;SDS011;68276;49.326;8.690;2023-06-22T00:45:39;5.97;;;1.80;;
78887;SDS011;68276;49.326;8.690;2023-06-22T00:48:05;7.87;;;2.30;;
78887;SDS011;68276;49.326;8.690;2023-06-22T00:50:32;6.63;;;2.42;;
78887;SDS011;68276;49.326;8.690;2023-06-22T00:52:59;6.75;;;2.20;;
78887;SDS011;68276;49.326;8.690;2023-06-22T00:55:33;6.43;;;2.25;;
78887;SDS011;68276;49.326;8.690;2023-06-22T00:58:10;6.13;;;2.33;;
78887;SDS011;68276;49.326;8.690;2023-06-22T01:00:37;8.77;;;2.40;;
78887;SDS011;68276;49.326;8.690;2023-06-22T01:03:03;9.55;;;3.38;;
78887;SDS011;68276;49.326;8.690;2023-06-22T01:11:09;6.90;;;2.47;;
78887;SDS011;68276;49.326;8.690;2023-06-22T01:13:43;7.43;;;2.83;;
78887;SDS011;68276;49.326;8.690;2023-06-22T01:16:26;9.05;;;2.90;;
78887;SDS011;68276;49.326;8.690;2023-06-22T01:18:57;7.65;;;2.58;;
78887;SDS011;68276;49.326;8.690;2023-06-22T01:21:26;8.18;;;2.92;;
78887;SDS011;68276;49.326;8.690;2023-06-22T01:29:26;8.68;;;2.95;;
78887;SDS011;68276;49.326;8.690;2023-06-22T01:31:54;9.95;;;3.40;;
78887;SDS011;68276;49.326;8.690;2023-06-22T01:34:22;8.63;;;2.85;;
78887;SDS011;68276;49.326;8.690;2023-06-22T01:36:49;8.45;;;3.20;;
78887;SDS011;68276;49.326;8.690;2023-06-22T01:39:16;7.63;;;2.78;;
78887;SDS011;68276;49.326;8.690;2023-06-22T01:41:42;7.75;;;2.78;;
78887;SDS011;68276;49.326;8.690;2023-06-22T01:44:08;8.50;;;2.95;;
78887;SDS011;68276;49.326;8.690;2023-06-22T01:46:35;8.70;;;3.08;;
78887;SDS011;68276;49.326;8.690;2023-06-22T01:49:02;10.18;;;2.90;;
78887;SDS011;68276;49.326;8.690;2023-06-22T01:51:28;8.15;;;3.13;;
78887;SDS011;68276;49.326;8.690;2023-06-22T01:56:19;8.63;;;3.00;;
78887;SDS011;68276;49.326;8.690;2023-06-22T02:01:15;8.25;;;2.63;;
78887;SDS011;68276;49.326;8.690;2023-06-22T02:03:51;7.93;;;3.28;;
78887;SDS011;68276;49.326;8.690;2023-06-22T02:06:29;7.72;;;3.13;;
78887;SDS011;68276;49.326;8.690;2023-06-22T02:09:01;8.95;;;3.53;;
78887;SDS011;68276;49.326;8.690;2023-06-22T02:11:28;8.60;;;3.40;;
78887;SDS011;68276;49.326;8.690;2023-06-22T02:13:56;9.20;;;2.90;;
78887;SDS011;68276;49.326;8.690;2023-06-22T02:16:23;8.43;;;2.92;;
78887;SDS011;68276;49.326;8.690;2023-06-22T02:21:20;8.90;;;3.13;;
78887;SDS011;68276;49.326;8.690;2023-06-22T02:23:46;8.00;;;3.08;;
78887;SDS011;68276;49.326;8.690;2023-06-22T02:28:37;8.82;;;3.22;;
78887;SDS011;68276;49.326;8.690;2023-06-22T02:31:03;9.55;;;3.90;;
78887;SDS011;68276;49.326;8.690;2023-06-22T02:33:28;8.20;;;3.65;;
78887;SDS011;68276;49.326;8.690;2023-06-22T02:35:53;9.07;;;3.63;;
78887;SDS011;68276;49.326;8.690;2023-06-22T02:38:19;12.45;;;4.10;;
78887;SDS011;68276;49.326;8.690;2023-06-22T02:40:45;7.72;;;3.08;;
78887;SDS011;68276;49.326;8.690;2023-06-22T02:43:10;7.50;;;3.13;;
78887;SDS011;68276;49.326;8.690;2023-06-22T02:45:36;7.95;;;2.97;;
78887;SDS011;68276;49.326;8.690;2023-06-22T02:48:01;9.75;;;3.63;;
78887;SDS011;68276;49.326;8.690;2023-06-22T02:50:27;8.38;;;3.13;;
78887;SDS011;68276;49.326;8.690;2023-06-22T02:52:55;8.43;;;3.13;;
78887;SDS011;68276;49.326;8.690;2023-06-22T02:57:46;8.93;;;3.57;;
78887;SDS011;68276;49.326;8.690;2023-06-22T03:00:13;11.30;;;3.20;;
78887;SDS011;68276;49.326;8.690;2023-06-22T03:02:49;9.18;;;2.92;;
78887;SDS011;68276;49.326;8.690;2023-06-22T03:05:15;8.52;;;3.33;;
78887;SDS011;68276;49.326;8.690;2023-06-22T03:07:43;9.23;;;3.10;;
78887;SDS011;68276;49.326;8.690;2023-06-22T03:12:34;7.97;;;2.90;;
78887;SDS011;68276;49.326;8.690;2023-06-22T03:17:26;8.23;;;3.10;;
78887;SDS011;68276;49.326;8.690;2023-06-22T03:19:51;7.00;;;2.80;;
78887;SDS011;68276;49.326;8.690;2023-06-22T03:24:42;8.33;;;2.80;;
78887;SDS011;68276;49.326;8.690;2023-06-22T03:27:07;9.87;;;2.97;;
78887;SDS011;68276;49.326;8.690;2023-06-22T03:31:59;8.60;;;3.30;;
78887;SDS011;68276;49.326;8.690;2023-06-22T03:34:24;9.03;;;3.17;;
78887;SDS011;68276;49.326;8.690;2023-06-22T03:36:49;7.10;;;2.70;;
78887;SDS011;68276;49.326;8.690;2023-06-22T03:39:15;8.23;;;2.80;;
78887;SDS011;68276;49.326;8.690;2023-06-22T03:44:05;9.47;;;2.73;;
78887;SDS011;68276;49.326;8.690;2023-06-22T03:48:56;11.50;;;3.13;;
78887;SDS011;68276;49.326;8.690;2023-06-22T03:51:22;7.03;;;2.20;;
78887;SDS011;68276;49.326;8.690;2023-06-22T03:56:13;8.25;;;3.28;;
78887;SDS011;68276;49.326;8.690;2023-06-22T04:01:10;7.78;;;2.78;;
78887;SDS011;68276;49.326;8.690;2023-06-22T04:03:36;8.25;;;3.17;;
78887;SDS011;68276;49.326;8.690;2023-06-22T04:06:02;8.40;;;2.75;;
78887;SDS011;68276;49.326;8.690;2023-06-22T04:08:27;8.40;;;3.30;;
78887;SDS011;68276;49.326;8.690;2023-06-22T04:13:18;10.50;;;3.30;;
78887;SDS011;68276;49.326;8.690;2023-06-22T04:18:09;7.93;;;2.90;;
78887;SDS011;68276;49.326;8.690;2023-06-22T04:20:35;7.35;;;2.38;;
78887;SDS011;68276;49.326;8.690;2023-06-22T04:23:00;8.43;;;2.88;;
78887;SDS011;68276;49.326;8.690;2023-06-22T04:27:51;8.40;;;2.83;;
78887;SDS011;68276;49.326;8.690;2023-06-22T04:30:16;9.05;;;3.15;;
78887;SDS011;68276;49.326;8.690;2023-06-22T04:35:08;7.63;;;2.88;;
78887;SDS011;68276;49.326;8.690;2023-06-22T04:37:35;8.63;;;3.38;;
78887;SDS011;68276;49.326;8.690;2023-06-22T04:40:00;8.90;;;3.30;;
78887;SDS011;68276;49.326;8.690;2023-06-22T04:42:26;8.38;;;3.20;;
78887;SDS011;68276;49.326;8.690;2023-06-22T04:47:18;7.53;;;2.92;;
78887;SDS011;68276;49.326;8.690;2023-06-22T04:52:10;7.83;;;2.93;;
78887;SDS011;68276;49.326;8.690;2023-06-22T04:54:37;7.70;;;3.00;;
78887;SDS011;68276;49.326;8.690;2023-06-22T04:57:04;8.43;;;3.15;;
78887;SDS011;68276;49.326;8.690;2023-06-22T04:59:34;10.88;;;3.22;;
78887;SDS011;68276;49.326;8.690;2023-06-22T05:04:27;8.00;;;2.95;;
78887;SDS011;68276;49.326;8.690;2023-06-22T05:06:56;7.72;;;3.20;;
78887;SDS011;68276;49.326;8.690;2023-06-22T05:09:22;7.32;;;3.30;;
78887;SDS011;68276;49.326;8.690;2023-06-22T05:14:14;8.70;;;3.38;;
78887;SDS011;68276;49.326;8.690;2023-06-22T05:16:40;8.23;;;3.03;;
78887;SDS011;68276;49.326;8.690;2023-06-22T05:19:07;9.32;;;2.90;;
78887;SDS011;68276;49.326;8.690;2023-06-22T05:23:58;8.55;;;3.42;;
78887;SDS011;68276;49.326;8.690;2023-06-22T05:26:25;8.00;;;2.97;;
78887;SDS011;68276;49.326;8.690;2023-06-22T05:28:52;8.00;;;3.08;;
78887;SDS011;68276;49.326;8.690;2023-06-22T05:33:45;7.72;;;2.95;;
78887;SDS011;68276;49.326;8.690;2023-06-22T05:36:11;8.23;;;3.25;;
78887;SDS011;68276;49.326;8.690;2023-06-22T05:38:39;8.45;;;3.20;;
78887;SDS011;68276;49.326;8.690;2023-06-22T05:41:06;8.32;;;3.65;;
78887;SDS011;68276;49.326;8.690;2023-06-22T05:45:57;11.00;;;3.10;;
78887;SDS011;68276;49.326;8.690;2023-06-22T05:50:48;9.53;;;3.37;;
78887;SDS011;68276;49.326;8.690;2023-06-22T05:53:14;8.55;;;3.03;;
78887;SDS011;68276;49.326;8.690;2023-06-22T05:58:05;10.80;;;3.38;;
78887;SDS011;68276;49.326;8.690;2023-06-22T06:02:56;7.93;;;3.37;;
78887;SDS011;68276;49.326;8.690;2023-06-22T06:07:49;8.32;;;3.55;;
78887;SDS011;68276;49.326;8.690;2023-06-22T06:12:39;7.93;;;3.20;;
78887;SDS011;68276;49.326;8.690;2023-06-22T06:17:30;8.63;;;3.60;;
78887;SDS011;68276;49.326;8.690;2023-06-22T06:22:21;8.20;;;3.13;;
78887;SDS011;68276;49.326;8.690;2023-06-22T06:24:49;8.32;;;3.25;;
78887;SDS011;68276;49.326;8.690;2023-06-22T06:29:40;10.20;;;3.30;;
78887;SDS011;68276;49.326;8.690;2023-06-22T06:34:31;9.18;;;3.30;;
78887;SDS011;68276;49.326;8.690;2023-06-22T06:39:21;7.97;;;3.23;;
78887;SDS011;68276;49.326;8.690;2023-06-22T06:41:48;8.10;;;3.45;;
78887;SDS011;68276;49.326;8.690;2023-06-22T06:44:13;8.63;;;3.60;;
78887;SDS011;68276;49.326;8.690;2023-06-22T06:49:04;10.63;;;4.30;;
78887;SDS011;68276;49.326;8.690;2023-06-22T06:53:55;8.30;;;3.40;;
78887;SDS011;68276;49.326;8.690;2023-06-22T06:58:45;8.90;;;3.83;;
78887;SDS011;68276;49.326;8.690;2023-06-22T07:03:37;10.10;;;4.15;;
78887;SDS011;68276;49.326;8.690;2023-06-22T07:06:05;9.60;;;3.67;;
78887;SDS011;68276;49.326;8.690;2023-06-22T07:08:31;9.27;;;3.60;;
78887;SDS011;68276;49.326;8.690;2023-06-22T07:13:22;9.17;;;3.27;;
78887;SDS011;68276;49.326;8.690;2023-06-22T07:15:47;10.82;;;4.20;;
78887;SDS011;68276;49.326;8.690;2023-06-22T07:18:13;8.90;;;3.85;;
78887;SDS011;68276;49.326;8.690;2023-06-22T07:20:38;9.43;;;3.40;;
78887;SDS011;68276;49.326;8.690;2023-06-22T07:25:30;9.10;;;4.18;;
78887;SDS011;68276;49.326;8.690;2023-06-22T07:27:59;8.50;;;3.65;;
78887;SDS011;68276;49.326;8.690;2023-06-22T07:30:27;9.68;;;3.60;;
78887;SDS011;68276;49.326;8.690;2023-06-22T07:32:54;8.52;;;3.67;;
78887;SDS011;68276;49.326;8.690;2023-06-22T07:35:20;8.48;;;3.45;;
78887;SDS011;68276;49.326;8.690;2023-06-22T07:37:46;8.52;;;3.47;;
78887;SDS011;68276;49.326;8.690;2023-06-22T07:40:11;8.05;;;3.55;;
78887;SDS011;68276;49.326;8.690;2023-06-22T07:42:37;12.45;;;4.13;;
78887;SDS011;68276;49.326;8.690;2023-06-22T07:45:03;10.00;;;3.92;;
78887;SDS011;68276;49.326;8.690;2023-06-22T07:47:29;13.52;;;4.65;;
78887;SDS011;68276;49.326;8.690;2023-06-22T07:49:55;10.27;;;3.72;;
78887;SDS011;68276;49.326;8.690;2023-06-22T07:52:24;9.43;;;4.20;;
78887;SDS011;68276;49.326;8.690;2023-06-22T07:54:50;9.90;;;3.67;;
78887;SDS011;68276;49.326;8.690;2023-06-22T07:57:17;9.15;;;3.40;;
78887;SDS011;68276;49.326;8.690;2023-06-22T07:59:43;8.63;;;3.70;;
78887;SDS011;68276;49.326;8.690;2023-06-22T08:02:09;9.38;;;3.80;;
78887;SDS011;68276;49.326;8.690;2023-06-22T08:04:34;7.57;;;3.50;;
78887;SDS011;68276;49.326;8.690;2023-06-22T08:07:01;8.27;;;4.15;;
78887;SDS011;68276;49.326;8.690;2023-06-22T08:09:32;9.32;;;3.85;;
78887;SDS011;68276;49.326;8.690;2023-06-22T08:11:58;10.02;;;3.70;;
78887;SDS011;68276;49.326;8.690;2023-06-22T08:14:27;8.88;;;3.33;;
78887;SDS011;68276;49.326;8.690;2023-06-22T08:16:52;9.60;;;3.40;;
78887;SDS011;68276;49.326;8.690;2023-06-22T08:19:18;8.13;;;3.57;;
78887;SDS011;68276;49.326;8.690;2023-06-22T08:21:43;8.55;;;3.08;;
78887;SDS011;68276;49.326;8.690;2023-06-22T08:24:09;9.95;;;3.83;;
78887;SDS011;68276;49.326;8.690;2023-06-22T08:26:34;7.38;;;3.22;;
78887;SDS011;68276;49.326;8.690;2023-06-22T08:29:02;8.10;;;3.38;;
78887;SDS011;68276;49.326;8.690;2023-06-22T08:31:28;12.63;;;3.53;;
78887;SDS011;68276;49.326;8.690;2023-06-22T08:33:54;9.10;;;3.53;;
78887;SDS011;68276;49.326;8.690;2023-06-22T08:36:20;11.53;;;3.80;;
78887;SDS011;68276;49.326;8.690;2023-06-22T08:38:45;8.50;;;3.30;;
78887;SDS011;68276;49.326;8.690;2023-06-22T08:41:17;8.55;;;3.50;;
78887;SDS011;68276;49.326;8.690;2023-06-22T08:43:43;10.20;;;3.60;;
78887;SDS011;68276;49.326;8.690;2023-06-22T08:46:09;8.40;;;3.28;;
78887;SDS011;68276;49.326;8.690;2023-06-22T08:48:37;8.00;;;3.53;;
78887;SDS011;68276;49.326;8.690;2023-06-22T08:51:02;7.97;;;3.70;;
78887;SDS011;68276;49.326;8.690;2023-06-22T08:53:29;8.63;;;4.00;;
78887;SDS011;68276;49.326;8.690;2023-06-22T08:55:54;8.18;;;3.45;;
78887;SDS011;68276;49.326;8.690;2023-06-22T08:58:20;8.88;;;3.80;;
78887;SDS011;68276;49.326;8.690;2023-06-22T09:00:46;8.48;;;3.83;;
78887;SDS011;68276;49.326;8.690;2023-06-22T09:03:12;9.07;;;3.78;;
78887;SDS011;68276;49.326;8.690;2023-06-22T09:05:38;8.55;;;3.65;;
78887;SDS011;68276;49.326;8.690;2023-06-22T09:08:04;8.55;;;3.30;;
78887;SDS011;68276;49.326;8.690;2023-06-22T09:10:29;7.20;;;2.72;;
78887;SDS011;68276;49.326;8.690;2023-06-22T09:12:55;7.30;;;3.35;;
78887;SDS011;68276;49.326;8.690;2023-06-22T09:15:20;11.63;;;3.63;;
78887;SDS011;68276;49.326;8.690;2023-06-22T09:17:47;8.43;;;2.85;;
78887;SDS011;68276;49.326;8.690;2023-06-22T09:20:12;11.57;;;3.50;;
78887;SDS011;68276;49.326;8.690;2023-06-22T09:22:37;9.38;;;3.22;;
78887;SDS011;68276;49.326;8.690;2023-06-22T09:25:04;8.50;;;4.00;;
78887;SDS011;68276;49.326;8.690;2023-06-22T09:27:30;10.43;;;3.22;;
78887;SDS011;68276;49.326;8.690;2023-06-22T09:29:55;8.60;;;3.15;;
78887;SDS011;68276;49.326;8.690;2023-06-22T09:32:23;7.57;;;3.00;;
78887;SDS011;68276;49.326;8.690;2023-06-22T09:34:51;7.78;;;3.22;;
78887;SDS011;68276;49.326;8.690;2023-06-22T09:37:38;9.48;;;3.17;;
78887;SDS011;68276;49.326;8.690;2023-06-22T09:40:06;8.25;;;2.97;;
78887;SDS011;68276;49.326;8.690;2023-06-22T09:42:35;8.70;;;3.38;;
78887;SDS011;68276;49.326;8.690;2023-06-22T09:45:00;10.32;;;3.45;;
78887;SDS011;68276;49.326;8.690;2023-06-22T09:47:27;10.02;;;3.40;;
78887;SDS011;68276;49.326;8.690;2023-06-22T09:49:54;9.52;;;3.17;;
78887;SDS011;68276;49.326;8.690;2023-06-22T09:52:20;7.85;;;3.10;;
78887;SDS011;68276;49.326;8.690;2023-06-22T09:54:46;9.65;;;3.75;;
78887;SDS011;68276;49.326;8.690;2023-06-22T09:57:12;8.98;;;3.28;;
78887;SDS011;68276;49.326;8.690;2023-06-22T09:59:37;8.38;;;3.20;;
78887;SDS011;68276;49.326;8.690;2023-06-22T10:02:05;7.32;;;2.90;;
78887;SDS011;68276;49.326;8.690;2023-06-22T10:04:31;10.60;;;3.38;;
78887;SDS011;68276;49.326;8.690;2023-06-22T10:06:57;8.23;;;3.20;;
78887;SDS011;68276;49.326;8.690;2023-06-22T10:09:22;10.57;;;3.40;;
78887;SDS011;68276;49.326;8.690;2023-06-22T10:11:47;7.68;;;3.10;;
78887;SDS011;68276;49.326;8.690;2023-06-22T10:14:13;9.82;;;3.83;;
78887;SDS011;68276;49.326;8.690;2023-06-22T10:16:38;8.05;;;3.10;;
78887;SDS011;68276;49.326;8.690;2023-06-22T10:19:06;7.90;;;2.70;;
78887;SDS011;68276;49.326;8.690;2023-06-22T10:21:31;8.85;;;3.15;;
78887;SDS011;68276;49.326;8.690;2023-06-22T10:23:57;10.38;;;3.10;;
78887;SDS011;68276;49.326;8.690;2023-06-22T10:26:24;6.53;;;2.80;;
78887;SDS011;68276;49.326;8.690;2023-06-22T10:28:50;8.77;;;3.13;;
78887;SDS011;68276;49.326;8.690;2023-06-22T10:31:16;9.13;;;2.85;;
78887;SDS011;68276;49.326;8.690;2023-06-22T10:33:42;9.00;;;3.10;;
78887;SDS011;68276;49.326;8.690;2023-06-22T10:36:15;8.13;;;3.33;;
78887;SDS011;68276;49.326;8.690;2023-06-22T10:38:40;7.75;;;3.08;;
78887;SDS011;68276;49.326;8.690;2023-06-22T10:41:06;10.05;;;3.30;;
78887;SDS011;68276;49.326;8.690;2023-06-22T10:43:31;7.32;;;3.00;;
78887;SDS011;68276;49.326;8.690;2023-06-22T10:45:57;8.10;;;3.30;;
78887;SDS011;68276;49.326;8.690;2023-06-22T10:48:22;9.60;;;3.08;;
78887;SDS011;68276;49.326;8.690;2023-06-22T10:50:48;8.03;;;2.93;;
78887;SDS011;68276;49.326;8.690;2023-06-22T10:53:13;9.97;;;3.20;;
78887;SDS011;68276;49.326;8.690;2023-06-22T10:55:38;9.93;;;3.53;;
78887;SDS011;68276;49.326;8.690;2023-06-22T10:58:04;8.67;;;3.37;;
78887;SDS011;68276;49.326;8.690;2023-06-22T11:00:29;8.40;;;3.20;;
78887;SDS011;68276;49.326;8.690;2023-06-22T11:02:54;9.25;;;3.45;;
78887;SDS011;68276;49.326;8.690;2023-06-22T11:05:20;10.38;;;3.30;;
78887;SDS011;68276;49.326;8.690;2023-06-22T11:07:45;8.63;;;3.03;;
78887;SDS011;68276;49.326;8.690;2023-06-22T11:10:12;8.27;;;3.33;;
78887;SDS011;68276;49.326;8.690;2023-06-22T11:12:38;8.23;;;2.85;;
78887;SDS011;68276;49.326;8.690;2023-06-22T11:15:04;8.40;;;2.95;;
78887;SDS011;68276;49.326;8.690;2023-06-22T11:17:30;8.77;;;3.22;;
78887;SDS011;68276;49.326;8.690;2023-06-22T11:19:56;7.65;;;3.45;;
78887;SDS011;68276;49.326;8.690;2023-06-22T11:22:22;8.52;;;3.15;;
78887;SDS011;68276;49.326;8.690;2023-06-22T11:24:47;7.85;;;3.35;;
78887;SDS011;68276;49.326;8.690;2023-06-22T11:27:13;8.23;;;2.93;;
78887;SDS011;68276;49.326;8.690;2023-06-22T11:29:38;8.18;;;3.17;;
78887;SDS011;68276;49.326;8.690;2023-06-22T11:32:06;9.43;;;3.05;;
78887;SDS011;68276;49.326;8.690;2023-06-22T11:34:32;8.02;;;3.08;;
78887;SDS011;68276;49.326;8.690;2023-06-22T11:36:58;9.18;;;2.70;;
78887;SDS011;68276;49.326;8.690;2023-06-22T11:39:23;8.10;;;3.30;;
78887;SDS011;68276;49.326;8.690;2023-06-22T11:41:48;10.95;;;3.20;;
78887;SDS011;68276;49.326;8.690;2023-06-22T11:44:14;8.88;;;3.20;;
78887;SDS011;68276;49.326;8.690;2023-06-22T11:46:39;8.40;;;3.37;;
78887;SDS011;68276;49.326;8.690;2023-06-22T11:49:05;8.48;;;2.72;;
78887;SDS011;68276;49.326;8.690;2023-06-22T11:51:30;7.55;;;3.20;;
78887;SDS011;68276;49.326;8.690;2023-06-22T11:53:56;9.23;;;3.17;;
78887;SDS011;68276;49.326;8.690;2023-06-22T11:56:22;8.60;;;3.05;;
78887;SDS011;68276;49.326;8.690;2023-06-22T11:58:47;8.13;;;2.88;;
78887;SDS011;68276;49.326;8.690;2023-06-22T12:01:13;8.53;;;2.90;;
78887;SDS011;68276;49.326;8.690;2023-06-22T12:03:40;6.95;;;2.78;;
78887;SDS011;68276;49.326;8.690;2023-06-22T12:06:05;8.27;;;2.55;;
78887;SDS011;68276;49.326;8.690;2023-06-22T12:08:31;8.35;;;3.50;;
78887;SDS011;68276;49.326;8.690;2023-06-22T12:10:56;10.00;;;3.10;;
78887;SDS011;68276;49.326;8.690;2023-06-22T12:13:21;8.83;;;2.93;;
78887;SDS011;68276;49.326;8.690;2023-06-22T12:15:47;7.90;;;2.43;;
78887;SDS011;68276;49.326;8.690;2023-06-22T12:18:12;9.77;;;3.40;;
78887;SDS011;68276;49.326;8.690;2023-06-22T12:20:40;7.20;;;3.00;;
78887;SDS011;68276;49.326;8.690;2023-06-22T12:23:05;9.50;;;3.15;;
78887;SDS011;68276;49.326;8.690;2023-06-22T12:25:30;8.68;;;3.25;;
78887;SDS011;68276;49.326;8.690;2023-06-22T12:27:56;8.95;;;3.17;;
78887;SDS011;68276;49.326;8.690;2023-06-22T12:30:21;8.03;;;2.70;;
78887;SDS011;68276;49.326;8.690;2023-06-22T12:32:47;8.15;;;2.85;;
78887;SDS011;68276;49.326;8.690;2023-06-22T12:35:12;9.68;;;2.67;;
78887;SDS011;68276;49.326;8.690;2023-06-22T12:37:40;9.20;;;3.20;;
78887;SDS011;68276;49.326;8.690;2023-06-22T12:40:06;9.20;;;3.00;;
78887;SDS011;68276;49.326;8.690;2023-06-22T12:42:32;8.77;;;3.03;;
78887;SDS011;68276;49.326;8.690;2023-06-22T12:44:57;8.40;;;3.03;;
78887;SDS011;68276;49.326;8.690;2023-06-22T12:47:23;7.77;;;3.00;;
78887;SDS011;68276;49.326;8.690;2023-06-22T12:49:48;9.07;;;3.23;;
78887;SDS011;68276;49.326;8.690;2023-06-22T12:52:14;9.68;;;3.10;;
78887;SDS011;68276;49.326;8.690;2023-06-22T12:54:39;7.63;;;3.00;;
78887;SDS011;68276;49.326;8.690;2023-06-22T12:57:05;7.50;;;2.97;;
78887;SDS011;68276;49.326;8.690;2023-06-22T12:59:30;7.57;;;3.08;;
78887;SDS011;68276;49.326;8.690;2023-06-22T13:01:56;8.57;;;3.33;;
78887;SDS011;68276;49.326;8.690;2023-06-22T13:04:21;8.23;;;3.13;;
78887;SDS011;68276;49.326;8.690;2023-06-22T13:06:46;9.27;;;4.22;;
78887;SDS011;68276;49.326;8.690;2023-06-22T13:09:13;9.43;;;3.17;;
78887;SDS011;68276;49.326;8.690;2023-06-22T13:11:39;9.30;;;2.92;;
78887;SDS011;68276;49.326;8.690;2023-06-22T13:14:05;8.02;;;3.47;;
78887;SDS011;68276;49.326;8.690;2023-06-22T13:16:30;9.13;;;3.03;;
78887;SDS011;68276;49.326;8.690;2023-06-22T13:18:56;7.97;;;3.00;;
78887;SDS011;68276;49.326;8.690;2023-06-22T13:21:21;8.30;;;3.17;;
78887;SDS011;68276;49.326;8.690;2023-06-22T13:23:47;8.52;;;3.05;;
78887;SDS011;68276;49.326;8.690;2023-06-22T13:26:13;10.33;;;3.53;;
78887;SDS011;68276;49.326;8.690;2023-06-22T13:28:39;7.45;;;3.17;;
78887;SDS011;68276;49.326;8.690;2023-06-22T13:31:04;8.45;;;3.50;;
78887;SDS011;68276;49.326;8.690;2023-06-22T13:33:30;8.43;;;3.33;;
78887;SDS011;68276;49.326;8.690;2023-06-22T13:35:56;7.97;;;3.17;;
78887;SDS011;68276;49.326;8.690;2023-06-22T13:38:21;8.90;;;3.07;;
78887;SDS011;68276;49.326;8.690;2023-06-22T13:40:47;8.00;;;2.90;;
78887;SDS011;68276;49.326;8.690;2023-06-22T13:43:13;8.68;;;3.17;;
78887;SDS011;68276;49.326;8.690;2023-06-22T13:45:39;9.00;;;3.25;;
78887;SDS011;68276;49.326;8.690;2023-06-22T13:48:05;8.38;;;3.00;;
78887;SDS011;68276;49.326;8.690;2023-06-22T13:50:30;7.53;;;2.90;;
78887;SDS011;68276;49.326;8.690;2023-06-22T13:52:56;9.77;;;3.10;;
78887;SDS011;68276;49.326;8.690;2023-06-22T13:55:22;9.52;;;3.00;;
78887;SDS011;68276;49.326;8.690;2023-06-22T13:57:48;8.13;;;2.97;;
78887;SDS011;68276;49.326;8.690;2023-06-22T14:00:14;9.60;;;3.45;;
78887;SDS011;68276;49.326;8.690;2023-06-22T14:02:40;10.43;;;3.47;;
78887;SDS011;68276;49.326;8.690;2023-06-22T14:05:06;10.60;;;3.60;;
78887;SDS011;68276;49.326;8.690;2023-06-22T14:07:32;9.05;;;3.38;;
78887;SDS011;68276;49.326;8.690;2023-06-22T14:09:58;7.70;;;3.17;;
78887;SDS011;68276;49.326;8.690;2023-06-22T14:12:23;8.02;;;3.38;;
78887;SDS011;68276;49.326;8.690;2023-06-22T14:14:49;8.02;;;3.67;;
78887;SDS011;68276;49.326;8.690;2023-06-22T14:17:14;8.27;;;3.23;;
78887;SDS011;68276;49.326;8.690;2023-06-22T14:19:40;7.67;;;3.50;;
78887;SDS011;68276;49.326;8.690;2023-06-22T14:22:05;10.18;;;3.63;;
78887;SDS011;68276;49.326;8.690;2023-06-22T14:24:31;11.43;;;3.42;;
78887;SDS011;68276;49.326;8.690;2023-06-22T14:26:56;9.57;;;3.53;;
78887;SDS011;68276;49.326;8.690;2023-06-22T14:29:22;9.50;;;3.50;;
78887;SDS011;68276;49.326;8.690;2023-06-22T14:31:48;9.70;;;3.60;;
78887;SDS011;68276;49.326;8.690;2023-06-22T14:34:14;12.23;;;4.57;;
78887;SDS011;68276;49.326;8.690;2023-06-22T14:36:40;10.60;;;3.40;;
78887;SDS011;68276;49.326;8.690;2023-06-22T14:39:07;10.60;;;3.50;;
78887;SDS011;68276;49.326;8.690;2023-06-22T14:41:33;9.80;;;4.10;;
78887;SDS011;68276;49.326;8.690;2023-06-22T14:43:58;12.37;;;4.70;;
78887;SDS011;68276;49.326;8.690;2023-06-22T14:46:23;9.07;;;3.35;;
78887;SDS011;68276;49.326;8.690;2023-06-22T14:48:49;9.70;;;4.17;;
78887;SDS011;68276;49.326;8.690;2023-06-22T14:51:14;10.37;;;3.70;;
78887;SDS011;68276;49.326;8.690;2023-06-22T14:53:40;8.93;;;3.47;;
78887;SDS011;68276;49.326;8.690;2023-06-22T14:56:06;12.32;;;4.05;;
78887;SDS011;68276;49.326;8.690;2023-06-22T14:58:32;11.73;;;3.70;;
78887;SDS011;68276;49.326;8.690;2023-06-22T15:00:58;9.57;;;3.50;;
78887;SDS011;68276;49.326;8.690;2023-06-22T15:03:24;8.95;;;3.38;;
78887;SDS011;68276;49.326;8.690;2023-06-22T15:05:53;9.38;;;4.10;;
78887;SDS011;68276;49.326;8.690;2023-06-22T15:08:18;9.98;;;3.70;;
78887;SDS011;68276;49.326;8.690;2023-06-22T15:10:44;13.73;;;3.53;;
78887;SDS011;68276;49.326;8.690;2023-06-22T15:13:10;8.88;;;3.35;;
78887;SDS011;68276;49.326;8.690;2023-06-22T15:15:35;15.13;;;4.07;;
78887;SDS011;68276;49.326;8.690;2023-06-22T15:18:01;8.93;;;3.33;;
78887;SDS011;68276;49.326;8.690;2023-06-22T15:20:26;13.65;;;3.92;;
78887;SDS011;68276;49.326;8.690;2023-06-22T15:22:52;11.88;;;3.80;;
78887;SDS011;68276;49.326;8.690;2023-06-22T15:25:17;10.67;;;3.77;;
78887;SDS011;68276;49.326;8.690;2023-06-22T15:27:42;12.40;;;3.97;;
78887;SDS011;68276;49.326;8.690;2023-06-22T15:30:08;11.07;;;3.60;;
78887;SDS011;68276;49.326;8.690;2023-06-22T15:32:33;10.73;;;4.25;;
78887;SDS011;68276;49.326;8.690;2023-06-22T15:34:59;8.83;;;3.63;;
78887;SDS011;68276;49.326;8.690;2023-06-22T15:37:24;11.25;;;3.58;;
78887;SDS011;68276;49.326;8.690;2023-06-22T15:39:50;10.37;;;3.93;;
78887;SDS011;68276;49.326;8.690;2023-06-22T15:42:15;9.00;;;4.03;;
78887;SDS011;68276;49.326;8.690;2023-06-22T15:44:41;13.60;;;4.03;;
78887;SDS011;68276;49.326;8.690;2023-06-22T15:47:06;10.37;;;3.50;;
78887;SDS011;68276;49.326;8.690;2023-06-22T15:49:32;10.18;;;3.60;;
78887;SDS011;68276;49.326;8.690;2023-06-22T15:51:57;9.07;;;4.93;;
78887;SDS011;68276;49.326;8.690;2023-06-22T15:54:22;11.50;;;4.07;;
78887;SDS011;68276;49.326;8.690;2023-06-22T15:56:48;9.98;;;4.38;;
78887;SDS011;68276;49.326;8.690;2023-06-22T15:59:13;13.43;;;3.90;;
78887;SDS011;68276;49.326;8.690;2023-06-22T16:01:39;9.07;;;3.50;;
78887;SDS011;68276;49.326;8.690;2023-06-22T16:04:04;9.70;;;3.30;;
78887;SDS011;68276;49.326;8.690;2023-06-22T16:06:29;9.07;;;3.60;;
78887;SDS011;68276;49.326;8.690;2023-06-22T16:08:55;9.70;;;4.13;;
78887;SDS011;68276;49.326;8.690;2023-06-22T16:11:21;8.90;;;3.40;;
78887;SDS011;68276;49.326;8.690;2023-06-22T16:13:46;10.13;;;3.63;;
78887;SDS011;68276;49.326;8.690;2023-06-22T16:16:12;9.77;;;3.20;;
78887;SDS011;68276;49.326;8.690;2023-06-22T16:18:37;9.95;;;3.72;;
78887;SDS011;68276;49.326;8.690;2023-06-22T16:21:05;12.05;;;3.80;;
78887;SDS011;68276;49.326;8.690;2023-06-22T16:23:30;9.52;;;4.75;;
78887;SDS011;68276;49.326;8.690;2023-06-22T16:25:56;8.77;;;3.10;;
78887;SDS011;68276;49.326;8.690;2023-06-22T16:28:21;12.00;;;3.90;;
78887;SDS011;68276;49.326;8.690;2023-06-22T16:30:47;9.77;;;3.27;;
78887;SDS011;68276;49.326;8.690;2023-06-22T16:33:13;10.77;;;3.60;;
78887;SDS011;68276;49.326;8.690;2023-06-22T16:35:38;10.30;;;3.65;;
78887;SDS011;68276;49.326;8.690;2023-06-22T16:38:05;10.90;;;3.50;;
78887;SDS011;68276;49.326;8.690;2023-06-22T16:40:32;8.82;;;3.42;;
78887;SDS011;68276;49.326;8.690;2023-06-22T16:42:58;9.93;;;3.63;;